createdAt,value
2022-10-10T00:00:26.209Z,97.89
2022-10-10T00:01:26.285Z,98.20
2022-10-10T00:02:26.186Z,98.30
2022-10-10T00:03:26.179Z,98.20
2022-10-10T00:04:26.178Z,97.99
2022-10-10T00:05:26.160Z,97.99
2022-10-10T00:06:30.372Z,97.99
2022-10-10T00:07:28.142Z,97.89
2022-10-10T00:08:26.144Z,97.99
2022-10-10T00:09:26.130Z,98.41
2022-10-10T00:10:26.122Z,97.99
2022-10-10T00:11:26.143Z,98.10
2022-10-10T00:12:26.109Z,98.03
2022-10-10T00:13:26.097Z,97.99
2022-10-10T00:14:27.584Z,98.10
2022-10-10T00:15:26.077Z,97.99
2022-10-10T00:16:26.076Z,98.10
2022-10-10T00:17:26.075Z,98.10
2022-10-10T00:18:26.062Z,98.10
2022-10-10T00:19:26.049Z,98.10
2022-10-10T00:20:26.044Z,97.89
2022-10-10T00:21:26.041Z,98.10
2022-10-10T00:22:26.027Z,97.99
2022-10-10T00:23:26.679Z,98.20
2022-10-10T00:24:26.008Z,98.10
2022-10-10T00:25:26.000Z,97.58
2022-10-10T00:26:25.997Z,98.10
2022-10-10T00:27:25.981Z,97.89
2022-10-10T00:28:26.012Z,97.99
2022-10-10T00:30:25.934Z,97.72
2022-10-10T00:31:25.928Z,97.52
2022-10-10T00:32:25.935Z,97.78
2022-10-10T00:33:25.920Z,97.93
2022-10-10T00:34:25.906Z,97.83
2022-10-10T00:35:25.896Z,97.78
2022-10-10T00:36:25.912Z,98.03
2022-10-10T00:37:25.880Z,98.24
2022-10-10T00:38:26.976Z,97.89
2022-10-10T00:39:26.972Z,98.10
2022-10-10T00:40:26.959Z,98.10
2022-10-10T00:41:26.969Z,97.58
2022-10-10T00:42:26.947Z,97.93
2022-10-10T00:43:26.928Z,97.47
2022-10-10T00:44:26.929Z,97.83
2022-10-10T00:45:26.915Z,97.99
2022-10-10T00:46:26.907Z,97.99
2022-10-10T00:47:26.907Z,98.14
2022-10-10T00:48:26.907Z,97.78
2022-10-10T00:49:26.884Z,97.89
2022-10-10T00:50:26.873Z,97.99
2022-10-10T00:51:26.880Z,97.89
2022-10-10T00:52:26.855Z,97.99
2022-10-10T00:53:26.861Z,98.24
2022-10-10T00:54:26.842Z,98.45
2022-10-10T00:55:26.836Z,98.97
2022-10-10T00:56:26.841Z,98.30
2022-10-10T00:57:26.818Z,98.66
2022-10-10T00:58:26.822Z,99.34
2022-10-10T00:59:26.806Z,99.44
2022-10-10T01:00:26.809Z,99.55
2022-10-10T01:01:28.282Z,99.44
2022-10-10T01:02:26.783Z,99.49
2022-10-10T01:03:26.780Z,99.55
2022-10-10T01:04:27.332Z,99.80
2022-10-10T01:05:26.760Z,99.34
2022-10-10T01:06:26.755Z,99.44
2022-10-10T01:07:26.740Z,99.76
2022-10-10T01:08:26.740Z,99.34
2022-10-10T01:09:26.728Z,99.65
2022-10-10T01:10:26.721Z,99.70
2022-10-10T01:11:26.713Z,99.65
2022-10-10T01:12:26.725Z,99.44
2022-10-10T01:13:26.708Z,99.76
2022-10-10T01:14:26.698Z,99.80
2022-10-10T01:15:26.680Z,99.44
2022-10-10T01:16:26.671Z,99.38
2022-10-10T01:17:26.663Z,99.34
2022-10-10T01:18:26.665Z,99.80
2022-10-10T01:19:26.645Z,99.86
2022-10-10T01:20:26.655Z,99.70
2022-10-10T01:21:26.631Z,99.65
2022-10-10T01:22:26.623Z,99.99
2022-10-10T01:23:26.627Z,99.99
2022-10-10T01:24:26.607Z,99.76
2022-10-10T01:25:26.615Z,99.49
2022-10-10T01:26:26.605Z,99.99
2022-10-10T01:27:31.175Z,99.76
2022-10-10T01:28:27.596Z,99.96
2022-10-10T01:29:26.570Z,99.99
2022-10-10T01:30:26.563Z,99.99
2022-10-10T01:31:26.560Z,99.65
2022-10-10T01:32:26.547Z,99.55
2022-10-10T01:33:26.542Z,99.34
2022-10-10T01:34:26.535Z,99.65
2022-10-10T01:35:26.531Z,99.65
2022-10-10T01:36:26.511Z,99.61
2022-10-10T01:37:26.518Z,99.51
2022-10-10T01:38:26.503Z,99.09
2022-10-10T01:39:26.496Z,98.68
2022-10-10T01:40:26.495Z,98.47
2022-10-10T01:41:26.478Z,98.47
2022-10-10T01:42:26.477Z,98.47
2022-10-10T01:43:26.462Z,98.26
2022-10-10T01:44:26.456Z,97.95
2022-10-10T01:45:26.443Z,98.47
2022-10-10T01:46:26.459Z,98.21
2022-10-10T01:47:26.452Z,98.00
2022-10-10T01:48:26.434Z,97.80
2022-10-10T01:49:26.419Z,97.69
2022-10-10T01:50:26.407Z,97.80
2022-10-10T01:51:26.408Z,97.34
2022-10-10T01:52:26.435Z,96.86
2022-10-10T01:53:26.390Z,97.03
2022-10-10T01:54:26.376Z,97.59
2022-10-10T01:55:26.372Z,97.24
2022-10-10T01:56:26.362Z,96.76
2022-10-10T01:57:26.369Z,96.41
2022-10-10T01:58:26.349Z,96.51
2022-10-10T01:59:26.349Z,96.51
2022-10-10T02:00:26.624Z,97.34
2022-10-10T02:01:26.323Z,97.29
2022-10-10T02:02:27.224Z,96.30
2022-10-10T02:03:27.415Z,95.99
2022-10-10T02:04:26.300Z,96.09
2022-10-10T02:05:26.293Z,95.95
2022-10-10T02:06:26.285Z,96.26
2022-10-10T02:07:26.296Z,96.21
2022-10-10T02:08:26.272Z,96.01
2022-10-10T02:09:26.282Z,95.80
2022-10-10T02:10:26.252Z,95.74
2022-10-10T02:11:26.257Z,95.90
2022-10-10T02:12:26.255Z,95.70
2022-10-10T02:13:26.236Z,96.01
2022-10-10T02:14:26.331Z,96.21
2022-10-10T02:15:26.218Z,96.31
2022-10-10T02:16:26.212Z,96.62
2022-10-10T02:17:26.205Z,97.25
2022-10-10T02:18:26.189Z,97.35
2022-10-10T02:19:26.182Z,97.25
2022-10-10T02:20:26.174Z,96.52
2022-10-10T02:21:26.166Z,95.80
2022-10-10T02:22:26.186Z,95.96
2022-10-10T02:23:26.273Z,95.75
2022-10-10T02:24:26.145Z,95.75
2022-10-10T02:25:26.139Z,95.44
2022-10-10T02:26:26.126Z,95.40
2022-10-10T02:27:26.121Z,95.29
2022-10-10T02:28:26.182Z,94.37
2022-10-10T02:29:26.111Z,94.20
2022-10-10T02:30:26.111Z,94.68
2022-10-10T02:31:26.087Z,93.99
2022-10-10T02:32:26.083Z,94.20
2022-10-10T02:33:26.070Z,93.95
2022-10-10T02:34:26.065Z,94.62
2022-10-10T02:35:27.074Z,94.16
2022-10-10T02:36:26.049Z,94.10
2022-10-10T02:37:26.041Z,94.51
2022-10-10T02:38:26.078Z,93.85
2022-10-10T02:39:26.020Z,94.47
2022-10-10T02:40:26.026Z,94.20
2022-10-10T02:41:26.015Z,94.06
2022-10-10T02:42:25.998Z,94.62
2022-10-10T02:43:25.997Z,94.10
2022-10-10T02:44:25.982Z,94.31
2022-10-10T02:45:25.978Z,94.31
2022-10-10T02:46:25.987Z,94.20
2022-10-10T02:47:26.153Z,94.51
2022-10-10T02:48:25.953Z,94.62
2022-10-10T02:49:26.959Z,94.51
2022-10-10T02:50:25.962Z,94.31
2022-10-10T02:51:30.194Z,94.35
2022-10-10T02:52:27.077Z,94.10
2022-10-10T02:53:27.733Z,94.97
2022-10-10T02:54:25.909Z,95.70
2022-10-10T02:55:25.902Z,95.39
2022-10-10T02:56:25.898Z,95.59
2022-10-10T02:57:25.894Z,95.28
2022-10-10T02:58:25.890Z,95.18
2022-10-10T02:59:25.871Z,95.18
2022-10-10T03:00:25.910Z,95.43
2022-10-10T03:01:25.925Z,95.28
2022-10-10T03:02:25.865Z,95.64
2022-10-10T03:03:25.842Z,95.32
2022-10-10T03:04:25.837Z,96.15
2022-10-10T03:05:25.827Z,95.64
2022-10-10T03:06:25.817Z,95.28
2022-10-10T03:07:25.813Z,95.18
2022-10-10T03:08:25.795Z,95.22
2022-10-10T03:09:25.788Z,95.53
2022-10-10T03:10:26.796Z,95.43
2022-10-10T03:11:25.783Z,95.22
2022-10-10T03:12:25.771Z,95.53
2022-10-10T03:13:25.766Z,95.22
2022-10-10T03:14:25.760Z,95.32
2022-10-10T03:15:25.747Z,95.43
2022-10-10T03:16:25.740Z,95.22
2022-10-10T03:17:25.736Z,95.43
2022-10-10T03:18:25.728Z,95.32
2022-10-10T03:19:25.719Z,95.22
2022-10-10T03:20:25.706Z,95.53
2022-10-10T03:21:25.702Z,95.64
2022-10-10T03:22:25.697Z,95.12
2022-10-10T03:23:25.682Z,95.64
2022-10-10T03:24:25.681Z,95.84
2022-10-10T03:25:25.665Z,95.53
2022-10-10T03:26:25.669Z,95.99
2022-10-10T03:27:25.653Z,95.64
2022-10-10T03:28:25.675Z,96.41
2022-10-10T03:29:25.639Z,96.09
2022-10-10T03:30:25.639Z,96.15
2022-10-10T03:31:25.640Z,96.15
2022-10-10T03:32:25.611Z,96.09
2022-10-10T03:33:25.616Z,96.36
2022-10-10T03:34:25.597Z,96.26
2022-10-10T03:35:25.600Z,95.99
2022-10-10T03:36:25.587Z,96.20
2022-10-10T03:37:25.578Z,96.15
2022-10-10T03:38:25.592Z,97.44
2022-10-10T03:39:25.599Z,97.39
2022-10-10T03:40:25.561Z,97.29
2022-10-10T03:41:25.555Z,96.88
2022-10-10T03:42:25.535Z,96.15
2022-10-10T03:43:25.527Z,95.64
2022-10-10T03:44:25.532Z,95.78
2022-10-10T03:45:25.510Z,95.84
2022-10-10T03:46:25.514Z,96.20
2022-10-10T03:47:25.495Z,96.26
2022-10-10T03:48:25.500Z,96.05
2022-10-10T03:49:25.487Z,96.20
2022-10-10T03:50:25.476Z,96.82
2022-10-10T03:51:25.463Z,97.55
2022-10-10T03:52:25.463Z,97.34
2022-10-10T03:53:25.453Z,97.44
2022-10-10T03:54:25.443Z,97.34
2022-10-10T03:55:25.444Z,97.24
2022-10-10T03:56:25.435Z,97.28
2022-10-10T03:57:25.422Z,97.24
2022-10-10T03:58:25.414Z,96.97
2022-10-10T03:59:25.417Z,97.13
2022-10-10T04:00:25.402Z,96.86
2022-10-10T04:01:25.437Z,97.24
2022-10-10T04:02:25.385Z,96.97
2022-10-10T04:03:25.366Z,97.34
2022-10-10T04:04:25.365Z,97.38
2022-10-10T04:05:25.354Z,97.28
2022-10-10T04:06:25.365Z,97.24
2022-10-10T04:07:25.337Z,96.97
2022-10-10T04:08:25.329Z,97.49
2022-10-10T04:09:26.284Z,97.34
2022-10-10T04:10:25.328Z,97.38
2022-10-10T04:11:25.315Z,97.34
2022-10-10T04:12:25.301Z,97.49
2022-10-10T04:13:25.291Z,97.28
2022-10-10T04:14:25.284Z,97.28
2022-10-10T04:15:25.281Z,97.28
2022-10-10T04:16:25.272Z,97.38
2022-10-10T04:17:25.261Z,97.38
2022-10-10T04:18:25.249Z,97.28
2022-10-10T04:19:25.239Z,97.38
2022-10-10T04:20:25.241Z,97.49
2022-10-10T04:21:25.234Z,96.97
2022-10-10T04:22:25.320Z,97.38
2022-10-10T04:23:25.218Z,97.53
2022-10-10T04:24:25.204Z,97.59
2022-10-10T04:25:25.207Z,97.49
2022-10-10T04:26:25.242Z,97.49
2022-10-10T04:27:25.198Z,97.59
2022-10-10T04:28:25.215Z,97.28
2022-10-10T04:29:25.165Z,97.28
2022-10-10T04:30:25.161Z,97.28
2022-10-10T04:31:25.170Z,97.12
2022-10-10T04:32:25.148Z,97.33
2022-10-10T04:33:25.135Z,97.64
2022-10-10T04:34:25.131Z,97.53
2022-10-10T04:35:25.129Z,97.07
2022-10-10T04:36:25.113Z,97.17
2022-10-10T04:37:25.116Z,97.07
2022-10-10T04:38:25.111Z,96.97
2022-10-10T04:39:25.092Z,97.12
2022-10-10T04:40:26.837Z,97.33
2022-10-10T04:41:26.076Z,97.33
2022-10-10T04:42:25.075Z,97.33
2022-10-10T04:43:25.067Z,97.12
2022-10-10T04:44:25.059Z,97.59
2022-10-10T04:45:25.058Z,97.53
2022-10-10T04:46:25.034Z,97.43
2022-10-10T04:47:25.029Z,97.33
2022-10-10T04:48:25.027Z,97.53
2022-10-10T04:49:25.016Z,97.53
2022-10-10T04:50:25.037Z,97.95
2022-10-10T04:51:25.001Z,97.74
2022-10-10T04:52:24.996Z,97.53
2022-10-10T04:53:24.985Z,97.53
2022-10-10T04:54:25.872Z,98.47
2022-10-10T04:55:24.974Z,98.26
2022-10-10T04:56:24.961Z,98.47
2022-10-10T04:57:25.795Z,98.47
2022-10-10T04:58:24.958Z,98.05
2022-10-10T04:59:24.941Z,97.74
2022-10-10T05:00:24.937Z,97.74
2022-10-10T05:01:25.098Z,97.95
2022-10-10T05:02:24.912Z,97.85
2022-10-10T05:03:24.933Z,97.95
2022-10-10T05:04:24.904Z,98.16
2022-10-10T05:05:24.892Z,97.95
2022-10-10T05:06:24.877Z,97.95
2022-10-10T05:07:24.889Z,97.85
2022-10-10T05:08:24.867Z,98.26
2022-10-10T05:09:24.879Z,98.16
2022-10-10T05:10:26.457Z,97.85
2022-10-10T05:11:24.895Z,97.85
2022-10-10T05:12:24.864Z,98.05
2022-10-10T05:13:24.829Z,97.85
2022-10-10T05:14:24.836Z,97.64
2022-10-10T05:15:24.838Z,97.74
2022-10-10T05:16:24.809Z,97.64
2022-10-10T05:17:24.804Z,97.95
2022-10-10T05:18:24.787Z,97.95
2022-10-10T05:19:24.803Z,97.99
2022-10-10T05:20:24.770Z,98.36
2022-10-10T05:21:24.781Z,98.57
2022-10-10T05:22:24.791Z,98.57
2022-10-10T05:23:24.744Z,98.78
2022-10-10T05:24:24.746Z,98.16
2022-10-10T05:25:24.748Z,98.47
2022-10-10T05:26:24.735Z,98.36
2022-10-10T05:27:24.721Z,98.16
2022-10-10T05:28:24.752Z,97.59
2022-10-10T05:29:24.704Z,98.05
2022-10-10T05:30:24.712Z,97.85
2022-10-10T05:31:24.721Z,97.95
2022-10-10T05:32:24.676Z,97.53
2022-10-10T05:33:25.380Z,97.85
2022-10-10T05:34:24.660Z,98.05
2022-10-10T05:35:24.652Z,97.95
2022-10-10T05:36:24.662Z,97.74
2022-10-10T05:37:24.644Z,97.53
2022-10-10T05:38:24.630Z,97.43
2022-10-10T05:39:24.635Z,97.12
2022-10-10T05:40:24.617Z,97.16
2022-10-10T05:41:24.605Z,97.22
2022-10-10T05:42:24.611Z,97.22
2022-10-10T05:43:24.618Z,97.53
2022-10-10T05:44:24.591Z,97.95
2022-10-10T05:45:25.311Z,98.05
2022-10-10T05:46:25.631Z,97.99
2022-10-10T05:47:27.808Z,98.05
2022-10-10T05:48:25.555Z,97.78
2022-10-10T05:49:24.572Z,97.53
2022-10-10T05:50:24.546Z,97.58
2022-10-10T05:51:24.534Z,97.27
2022-10-10T05:52:24.522Z,97.06
2022-10-10T05:53:24.515Z,97.74
2022-10-10T05:54:24.510Z,97.43
2022-10-10T05:55:24.502Z,97.74
2022-10-10T05:56:24.488Z,97.53
2022-10-10T05:57:24.485Z,97.90
2022-10-10T05:58:24.483Z,98.17
2022-10-10T05:59:24.470Z,97.13
2022-10-10T06:00:24.461Z,96.05
2022-10-10T06:01:24.452Z,95.95
2022-10-10T06:02:24.490Z,95.64
2022-10-10T06:03:24.436Z,96.15
2022-10-10T06:04:24.437Z,96.11
2022-10-10T06:05:24.427Z,95.96
2022-10-10T06:06:24.416Z,94.31
2022-10-10T06:07:40.380Z,93.79
2022-10-10T06:08:26.394Z,93.16
2022-10-10T06:09:24.388Z,93.27
2022-10-10T06:10:25.397Z,93.48
2022-10-10T06:11:24.374Z,93.37
2022-10-10T06:12:24.366Z,93.37
2022-10-10T06:13:24.703Z,92.67
2022-10-10T06:14:25.358Z,91.74
2022-10-10T06:15:24.342Z,90.97
2022-10-10T06:16:24.339Z,89.69
2022-10-10T06:17:24.324Z,89.65
2022-10-10T06:18:24.318Z,88.57
2022-10-10T06:19:24.317Z,87.71
2022-10-10T06:20:24.401Z,86.94
2022-10-10T06:21:24.298Z,85.57
2022-10-10T06:22:24.284Z,85.05
2022-10-10T06:23:24.288Z,83.77
2022-10-10T06:24:24.348Z,83.77
2022-10-10T06:25:39.375Z,83.26
2022-10-10T06:26:26.257Z,82.60
2022-10-10T06:27:24.516Z,82.40
2022-10-10T06:28:24.267Z,82.63
2022-10-10T06:29:24.243Z,81.01
2022-10-10T06:30:24.234Z,79.05
2022-10-10T06:31:24.211Z,77.55
2022-10-10T06:32:24.203Z,77.23
2022-10-10T06:33:24.194Z,77.44
2022-10-10T06:34:24.181Z,76.45
2022-10-10T06:35:24.184Z,74.66
2022-10-10T06:36:24.171Z,74.02
2022-10-10T06:37:24.162Z,72.92
2022-10-10T06:38:24.148Z,71.59
2022-10-10T06:39:24.149Z,72.07
2022-10-10T06:40:24.158Z,70.71
2022-10-10T06:41:24.124Z,70.71
2022-10-10T06:42:24.943Z,71.22
2022-10-10T06:43:24.107Z,70.40
2022-10-10T06:44:24.132Z,69.52
2022-10-10T06:45:24.145Z,68.73
2022-10-10T06:46:24.093Z,69.79
2022-10-10T06:47:24.079Z,70.94
2022-10-10T06:48:24.077Z,70.98
2022-10-10T06:49:24.069Z,72.14
2022-10-10T06:50:24.054Z,72.38
2022-10-10T06:51:24.035Z,72.89
2022-10-10T06:52:25.047Z,72.99
2022-10-10T06:53:24.040Z,72.78
2022-10-10T06:54:24.022Z,73.50
2022-10-10T06:55:24.413Z,72.86
2022-10-10T06:56:27.644Z,72.61
2022-10-10T06:57:26.892Z,72.03
2022-10-10T06:58:25.298Z,72.72
2022-10-10T06:59:24.014Z,71.04
2022-10-10T07:00:24.144Z,70.71
2022-10-10T07:01:24.027Z,71.25
2022-10-10T07:02:23.984Z,71.59
2022-10-10T07:03:23.951Z,72.44
2022-10-10T07:04:23.957Z,73.06
2022-10-10T07:05:24.897Z,73.06
2022-10-10T07:06:23.940Z,72.86
2022-10-10T07:07:23.945Z,73.64
2022-10-10T07:08:23.915Z,73.64
2022-10-10T07:09:23.909Z,74.46
2022-10-10T07:10:23.898Z,75.11
2022-10-10T07:11:23.895Z,75.28
2022-10-10T07:12:23.881Z,75.08
2022-10-10T07:13:23.878Z,75.28
2022-10-10T07:14:23.865Z,75.62
2022-10-10T07:15:23.863Z,75.49
2022-10-10T07:16:23.851Z,75.59
2022-10-10T07:17:23.840Z,75.11
2022-10-10T07:18:23.831Z,75.62
2022-10-10T07:19:23.827Z,76.45
2022-10-10T07:20:23.886Z,77.00
2022-10-10T07:21:23.811Z,76.79
2022-10-10T07:22:23.798Z,76.68
2022-10-10T07:23:23.799Z,76.55
2022-10-10T07:24:23.821Z,75.73
2022-10-10T07:25:24.428Z,75.38
2022-10-10T07:26:24.785Z,75.86
2022-10-10T07:27:23.761Z,75.76
2022-10-10T07:28:23.793Z,75.69
2022-10-10T07:29:23.744Z,76.75
2022-10-10T07:30:24.937Z,76.65
2022-10-10T07:31:23.740Z,76.75
2022-10-10T07:32:24.349Z,77.20
2022-10-10T07:33:23.712Z,77.10
2022-10-10T07:34:23.702Z,77.65
2022-10-10T07:35:23.690Z,78.27
2022-10-10T07:36:23.704Z,77.81
2022-10-10T07:37:23.684Z,78.12
2022-10-10T07:38:23.664Z,78.47
2022-10-10T07:39:23.686Z,78.47
2022-10-10T07:40:23.695Z,79.08
2022-10-10T07:41:23.648Z,79.39
2022-10-10T07:42:23.636Z,79.94
2022-10-10T07:43:23.687Z,79.74
2022-10-10T07:44:23.625Z,80.05
2022-10-10T07:45:23.609Z,80.77
2022-10-10T07:46:23.603Z,80.91
2022-10-10T07:47:23.585Z,81.32
2022-10-10T07:48:23.601Z,81.83
2022-10-10T07:49:23.577Z,81.69
2022-10-10T07:50:23.593Z,81.28
2022-10-10T07:51:23.559Z,81.14
2022-10-10T07:52:23.586Z,80.77
2022-10-10T07:53:23.553Z,80.56
2022-10-10T07:54:23.551Z,80.66
2022-10-10T07:55:23.543Z,81.69
2022-10-10T07:56:23.527Z,82.31
2022-10-10T07:57:23.525Z,81.69
2022-10-10T07:58:23.523Z,81.24
2022-10-10T07:59:23.508Z,81.04
2022-10-10T08:00:23.560Z,80.11
2022-10-10T08:01:23.539Z,79.97
2022-10-10T08:02:23.475Z,79.32
2022-10-10T08:03:24.440Z,79.11
2022-10-10T08:04:23.488Z,79.42
2022-10-10T08:05:23.465Z,79.63
2022-10-10T08:06:23.455Z,79.93
2022-10-10T08:07:23.446Z,79.63
2022-10-10T08:08:23.462Z,79.93
2022-10-10T08:09:23.442Z,79.90
2022-10-10T08:10:23.479Z,79.69
2022-10-10T08:11:23.415Z,79.08
2022-10-10T08:12:23.482Z,79.08
2022-10-10T08:13:23.400Z,78.77
2022-10-10T08:14:23.435Z,78.63
2022-10-10T08:15:23.388Z,78.74
2022-10-10T08:16:23.368Z,78.83
2022-10-10T08:17:23.373Z,78.42
2022-10-10T08:18:23.408Z,78.42
2022-10-10T08:19:23.375Z,78.63
2022-10-10T08:20:23.346Z,78.53
2022-10-10T08:21:23.333Z,78.63
2022-10-10T08:22:23.328Z,79.04
2022-10-10T08:23:23.948Z,78.83
2022-10-10T08:24:23.316Z,79.00
2022-10-10T08:25:23.311Z,78.90
2022-10-10T08:26:23.297Z,78.49
2022-10-10T08:27:23.313Z,78.70
2022-10-10T08:28:23.323Z,79.31
2022-10-10T08:29:23.273Z,80.03
2022-10-10T08:30:23.272Z,79.00
2022-10-10T08:31:23.265Z,79.41
2022-10-10T08:32:23.253Z,79.21
2022-10-10T08:33:23.241Z,79.41
2022-10-10T08:34:23.240Z,79.89
2022-10-10T08:35:26.043Z,80.03
2022-10-10T08:36:23.211Z,79.48
2022-10-10T08:37:28.452Z,80.33
2022-10-10T08:38:25.208Z,80.40
2022-10-10T08:39:24.340Z,80.51
2022-10-10T08:40:23.213Z,79.79
2022-10-10T08:41:24.025Z,79.96
2022-10-10T08:42:23.176Z,79.96
2022-10-10T08:43:23.225Z,79.50
2022-10-10T08:44:23.160Z,79.10
2022-10-10T08:45:23.920Z,78.79
2022-10-10T08:46:23.205Z,78.79
2022-10-10T08:47:23.144Z,79.16
2022-10-10T08:48:55.881Z,78.82
2022-10-10T08:49:23.113Z,77.90
2022-10-10T08:50:23.103Z,77.19
2022-10-10T08:51:23.134Z,76.84
2022-10-10T08:52:23.101Z,77.29
2022-10-10T08:53:23.091Z,76.94
2022-10-10T08:54:23.078Z,76.53
2022-10-10T08:55:23.061Z,77.22
2022-10-10T08:56:23.071Z,77.11
2022-10-10T08:57:23.070Z,76.60
2022-10-10T08:58:23.037Z,76.70
2022-10-10T08:59:23.039Z,76.46
2022-10-10T09:00:27.906Z,76.56
2022-10-10T09:01:25.084Z,76.46
2022-10-10T09:02:29.639Z,76.77
2022-10-10T09:03:24.011Z,76.22
2022-10-10T09:04:23.039Z,75.92
2022-10-10T09:05:23.122Z,76.12
2022-10-10T09:06:22.975Z,76.32
2022-10-10T09:08:41.847Z,76.22
2022-10-10T09:09:41.849Z,76.22
2022-10-10T09:10:42.933Z,76.12
2022-10-10T09:13:27.818Z,76.09
2022-10-10T09:14:04.006Z,75.74
2022-10-10T09:16:14.178Z,76.35
2022-10-10T09:17:14.690Z,74.90
2022-10-10T09:18:21.637Z,75.06
2022-10-10T09:19:18.296Z,75.37
2022-10-10T09:20:21.280Z,75.27
2022-10-10T09:22:41.965Z,74.96
2022-10-10T09:23:41.121Z,75.02
2022-10-10T09:24:43.538Z,75.37
2022-10-10T09:25:43.062Z,74.82
2022-10-10T09:26:42.202Z,74.82
2022-10-10T09:27:42.198Z,74.82
2022-10-10T09:28:42.229Z,74.82
2022-10-10T09:29:42.980Z,74.82
2022-10-10T09:30:42.157Z,75.20
2022-10-10T09:31:42.151Z,75.30
2022-10-10T09:32:42.146Z,75.40
2022-10-10T09:33:42.133Z,74.99
2022-10-10T09:34:42.104Z,74.99
2022-10-10T09:35:43.081Z,74.99
2022-10-10T09:36:42.098Z,75.09
2022-10-10T09:37:47.484Z,74.99
2022-10-10T09:38:44.088Z,75.30
2022-10-10T09:39:42.087Z,74.96
2022-10-10T09:40:42.084Z,75.16
2022-10-10T09:41:42.058Z,75.06
2022-10-10T09:42:42.050Z,74.82
2022-10-10T09:43:44.981Z,75.26
2022-10-10T09:45:58.285Z,74.92
2022-10-10T09:46:52.813Z,74.82
2022-10-10T09:47:50.938Z,74.79
2022-10-10T09:48:51.742Z,75.12
2022-10-10T09:49:51.003Z,74.99
2022-10-10T09:50:51.838Z,75.09
2022-10-10T09:51:50.911Z,75.29
2022-10-10T09:52:50.882Z,74.79
2022-10-10T09:53:51.750Z,74.79
2022-10-10T09:54:51.848Z,74.75
2022-10-10T09:55:51.919Z,74.95
2022-10-10T09:56:50.874Z,74.41
2022-10-10T09:57:51.003Z,74.10
2022-10-10T09:58:56.326Z,73.77
2022-10-10T09:59:52.326Z,73.60
2022-10-10T10:00:51.880Z,73.77
2022-10-10T10:01:51.048Z,74.07
2022-10-10T10:02:53.122Z,74.07
2022-10-10T10:03:50.807Z,73.97
2022-10-10T10:04:53.830Z,74.38
2022-10-10T10:05:51.853Z,73.97
2022-10-10T10:06:52.322Z,73.83
2022-10-10T10:07:50.899Z,73.83
2022-10-10T10:08:52.891Z,73.33
2022-10-10T10:09:58.253Z,73.33
2022-10-10T10:10:52.307Z,73.93
2022-10-10T10:11:54.330Z,73.29
2022-10-10T21:29:34.372Z,91.01
2022-10-10T21:30:34.348Z,91.42
2022-10-10T21:31:35.440Z,90.91
2022-10-10T21:32:35.425Z,91.31
2022-10-10T21:33:35.435Z,91.62
2022-10-10T21:34:36.353Z,91.52
2022-10-10T21:35:35.419Z,91.77
2022-10-10T21:36:35.394Z,91.97
2022-10-10T21:37:35.396Z,91.46
2022-10-10T21:38:35.375Z,91.66
2022-10-10T21:39:35.393Z,91.87
2022-10-10T21:40:35.371Z,91.66
2022-10-10T21:41:35.369Z,91.66
2022-10-10T21:42:35.356Z,91.66
2022-10-10T21:43:35.342Z,91.87
2022-10-10T21:44:35.334Z,91.56
2022-10-10T21:45:37.211Z,91.77
2022-10-10T21:46:36.778Z,91.46
2022-10-10T21:47:36.314Z,91.26
2022-10-10T21:48:35.308Z,91.66
2022-10-10T21:49:35.315Z,91.66
2022-10-10T21:50:35.298Z,91.87
2022-10-10T21:51:35.285Z,92.01
2022-10-10T21:52:35.272Z,91.87
2022-10-10T21:53:35.263Z,91.71
2022-10-10T21:54:36.293Z,91.40
2022-10-10T21:55:35.249Z,91.26
2022-10-10T21:56:35.247Z,91.81
2022-10-10T21:57:35.234Z,91.05
2022-10-10T21:58:35.223Z,91.26
2022-10-10T21:59:35.230Z,91.05
2022-10-10T22:00:35.329Z,91.09
2022-10-10T22:01:35.203Z,90.55
2022-10-10T22:02:35.789Z,90.64
2022-10-10T22:03:35.185Z,91.09
2022-10-10T22:04:35.177Z,90.69
2022-10-10T22:05:35.169Z,90.99
2022-10-10T22:06:35.159Z,90.69
2022-10-10T22:07:35.154Z,91.09
2022-10-10T22:08:35.147Z,91.20
2022-10-10T22:09:35.151Z,91.14
2022-10-10T22:10:35.131Z,90.89
2022-10-10T22:11:35.111Z,91.14
2022-10-10T22:12:36.106Z,91.14
2022-10-10T22:13:35.108Z,91.44
2022-10-10T22:14:35.117Z,91.14
2022-10-10T22:15:35.088Z,90.73
2022-10-10T22:16:35.093Z,90.63
2022-10-10T22:17:35.076Z,91.03
2022-10-10T22:18:35.061Z,90.83
2022-10-10T22:19:35.070Z,90.53
2022-10-10T22:20:35.041Z,90.53
2022-10-10T22:21:35.209Z,90.63
2022-10-10T22:22:35.033Z,90.12
2022-10-10T22:23:35.052Z,90.42
2022-10-10T22:24:35.019Z,90.63
2022-10-10T22:25:35.007Z,90.57
2022-10-10T22:26:35.022Z,90.47
2022-10-10T22:27:34.995Z,90.77
2022-10-10T22:28:35.049Z,90.77
2022-10-10T22:29:34.977Z,90.88
2022-10-10T22:30:34.990Z,91.18
2022-10-10T22:31:34.979Z,91.08
2022-10-10T22:32:34.959Z,90.98
2022-10-10T22:33:34.952Z,91.33
2022-10-10T22:34:34.957Z,91.18
2022-10-10T22:35:34.932Z,90.92
2022-10-10T22:36:34.925Z,91.53
2022-10-10T22:37:34.926Z,91.33
2022-10-10T22:38:34.913Z,91.28
2022-10-10T22:39:34.904Z,91.22
2022-10-10T22:40:34.907Z,91.33
2022-10-10T22:41:34.882Z,91.33
2022-10-10T22:42:34.892Z,91.53
2022-10-10T22:43:34.871Z,91.53
2022-10-10T22:44:34.854Z,91.88
2022-10-10T22:45:34.854Z,91.63
2022-10-10T22:46:34.847Z,92.29
2022-10-10T22:47:34.830Z,91.98
2022-10-10T22:48:34.833Z,93.00
2022-10-10T22:49:34.827Z,92.59
2022-10-10T22:50:34.810Z,92.49
2022-10-10T22:51:34.810Z,92.39
2022-10-10T22:52:34.802Z,92.29
2022-10-10T22:53:34.785Z,92.24
2022-10-10T22:54:34.781Z,92.55
2022-10-10T22:55:34.773Z,92.45
2022-10-10T22:56:34.772Z,92.96
2022-10-10T22:57:34.756Z,92.45
2022-10-10T22:58:34.762Z,91.83
2022-10-10T22:59:34.739Z,91.79
2022-10-10T23:00:34.801Z,91.79
2022-10-10T23:01:34.731Z,91.89
2022-10-10T23:02:34.709Z,91.79
2022-10-10T23:03:34.742Z,91.69
2022-10-10T23:04:34.693Z,91.44
2022-10-10T23:05:34.693Z,91.24
2022-10-10T23:06:34.684Z,91.24
2022-10-10T23:07:34.667Z,90.83
2022-10-10T23:08:34.678Z,90.99
2022-10-10T23:09:34.666Z,90.89
2022-10-10T23:10:34.656Z,90.18
2022-10-10T23:11:34.645Z,90.08
2022-10-10T23:12:34.627Z,90.48
2022-10-10T23:13:34.624Z,90.28
2022-10-10T23:14:35.308Z,90.28
2022-10-10T23:15:34.609Z,90.28
2022-10-10T23:16:37.454Z,89.97
2022-10-10T23:17:35.594Z,90.28
2022-10-10T23:18:34.586Z,90.18
2022-10-10T23:19:34.590Z,89.67
2022-10-10T23:20:34.571Z,89.87
2022-10-10T23:21:34.569Z,89.97
2022-10-10T23:22:34.551Z,89.97
2022-10-10T23:23:34.546Z,89.26
2022-10-10T23:24:34.541Z,89.36
2022-10-10T23:25:35.315Z,89.57
2022-10-10T23:26:34.512Z,89.36
2022-10-10T23:27:34.509Z,88.45
2022-10-10T23:28:34.655Z,89.06
2022-10-10T23:29:34.528Z,88.65
2022-10-10T23:30:34.504Z,89.06
2022-10-10T23:31:34.477Z,89.06
2022-10-10T23:32:34.474Z,89.16
2022-10-10T23:33:36.853Z,89.06
2022-10-10T23:34:35.451Z,88.75
2022-10-10T23:35:34.448Z,88.75
2022-10-10T23:36:34.440Z,88.14
2022-10-10T23:37:34.437Z,88.34
2022-10-10T23:38:34.434Z,88.65
2022-10-10T23:39:34.418Z,88.14
2022-10-10T23:40:34.423Z,87.94
2022-10-10T23:41:34.394Z,88.04
2022-10-10T23:42:34.399Z,88.04
2022-10-10T23:43:34.389Z,88.34
2022-10-10T23:44:34.377Z,88.04
2022-10-10T23:45:34.371Z,87.94
2022-10-10T23:46:34.353Z,87.77
2022-10-10T23:47:34.355Z,88.04
2022-10-10T23:48:34.373Z,87.73
2022-10-10T23:49:34.343Z,87.63
2022-10-10T23:50:34.321Z,87.43
2022-10-10T23:51:34.312Z,87.12
2022-10-10T23:52:34.327Z,87.32
2022-10-10T23:53:34.321Z,87.63
2022-10-10T23:54:34.314Z,86.51
2022-10-10T23:55:34.277Z,86.35
2022-10-10T23:56:34.285Z,86.41
2022-10-10T23:57:34.265Z,86.55
2022-10-10T23:58:34.263Z,84.98
2022-10-10T23:59:34.247Z,84.78
